sensor_id;sensor_type;location;lat;lon;timestamp;P1;durP1;ratioP1;P2;durP2;ratioP2
44270;SDS011;29963;44.594;11.368;2023-02-28T00:00:18;19.13;;;10.50;;
44270;SDS011;29963;44.594;11.368;2023-02-28T00:02:44;21.20;;;10.63;;
44270;SDS011;29963;44.594;11.368;2023-02-28T00:05:11;15.50;;;11.00;;
44270;SDS011;29963;44.594;11.368;2023-02-28T00:07:38;11.43;;;10.20;;
44270;SDS011;29963;44.594;11.368;2023-02-28T00:10:06;17.63;;;10.85;;
44270;SDS011;29963;44.594;11.368;2023-02-28T00:12:34;14.85;;;10.65;;
44270;SDS011;29963;44.594;11.368;2023-02-28T00:15:01;15.60;;;11.73;;
44270;SDS011;29963;44.594;11.368;2023-02-28T00:17:27;16.35;;;10.52;;
44270;SDS011;29963;44.594;11.368;2023-02-28T00:19:53;14.95;;;9.52;;
44270;SDS011;29963;44.594;11.368;2023-02-28T00:22:20;17.83;;;9.52;;
44270;SDS011;29963;44.594;11.368;2023-02-28T00:24:46;11.45;;;10.18;;
44270;SDS011;29963;44.594;11.368;2023-02-28T00:27:12;13.95;;;11.05;;
44270;SDS011;29963;44.594;11.368;2023-02-28T00:29:39;16.50;;;11.80;;
44270;SDS011;29963;44.594;11.368;2023-02-28T00:32:05;19.08;;;10.43;;
44270;SDS011;29963;44.594;11.368;2023-02-28T00:34:31;16.48;;;10.20;;
44270;SDS011;29963;44.594;11.368;2023-02-28T00:37:02;11.50;;;10.02;;
44270;SDS011;29963;44.594;11.368;2023-02-28T00:39:29;18.98;;;9.98;;
44270;SDS011;29963;44.594;11.368;2023-02-28T00:41:55;16.92;;;10.70;;
44270;SDS011;29963;44.594;11.368;2023-02-28T00:44:21;14.88;;;10.88;;
44270;SDS011;29963;44.594;11.368;2023-02-28T00:46:46;14.80;;;9.93;;
44270;SDS011;29963;44.594;11.368;2023-02-28T00:49:12;11.15;;;9.93;;
44270;SDS011;29963;44.594;11.368;2023-02-28T00:51:38;12.23;;;9.88;;
44270;SDS011;29963;44.594;11.368;2023-02-28T00:54:03;15.70;;;10.90;;
44270;SDS011;29963;44.594;11.368;2023-02-28T00:56:30;12.85;;;9.88;;
44270;SDS011;29963;44.594;11.368;2023-02-28T00:58:56;16.52;;;10.80;;
44270;SDS011;29963;44.594;11.368;2023-02-28T01:01:21;18.55;;;11.68;;
44270;SDS011;29963;44.594;11.368;2023-02-28T01:03:47;15.95;;;9.52;;
44270;SDS011;29963;44.594;11.368;2023-02-28T01:06:12;15.85;;;10.27;;
44270;SDS011;29963;44.594;11.368;2023-02-28T01:08:38;16.55;;;9.55;;
44270;SDS011;29963;44.594;11.368;2023-02-28T01:11:07;14.55;;;10.10;;
44270;SDS011;29963;44.594;11.368;2023-02-28T01:13:37;14.02;;;10.45;;
44270;SDS011;29963;44.594;11.368;2023-02-28T01:16:02;15.32;;;10.52;;
44270;SDS011;29963;44.594;11.368;2023-02-28T01:18:28;16.25;;;10.68;;
44270;SDS011;29963;44.594;11.368;2023-02-28T01:20:54;18.95;;;10.98;;
44270;SDS011;29963;44.594;11.368;2023-02-28T01:23:20;12.15;;;10.35;;
44270;SDS011;29963;44.594;11.368;2023-02-28T01:25:48;14.70;;;11.07;;
44270;SDS011;29963;44.594;11.368;2023-02-28T01:28:14;15.25;;;10.27;;
44270;SDS011;29963;44.594;11.368;2023-02-28T01:30:40;14.32;;;10.93;;
44270;SDS011;29963;44.594;11.368;2023-02-28T01:33:06;16.35;;;11.65;;
44270;SDS011;29963;44.594;11.368;2023-02-28T01:35:32;19.20;;;12.55;;
44270;SDS011;29963;44.594;11.368;2023-02-28T01:37:59;15.45;;;11.02;;
44270;SDS011;29963;44.594;11.368;2023-02-28T01:40:24;20.23;;;11.95;;
44270;SDS011;29963;44.594;11.368;2023-02-28T01:42:50;16.75;;;11.93;;
44270;SDS011;29963;44.594;11.368;2023-02-28T01:47:48;13.57;;;10.95;;
44270;SDS011;29963;44.594;11.368;2023-02-28T01:50:18;19.02;;;11.55;;
44270;SDS011;29963;44.594;11.368;2023-02-28T01:52:47;14.70;;;11.38;;
44270;SDS011;29963;44.594;11.368;2023-02-28T01:55:14;13.43;;;10.90;;
44270;SDS011;29963;44.594;11.368;2023-02-28T01:57:43;23.85;;;12.13;;
44270;SDS011;29963;44.594;11.368;2023-02-28T02:00:16;11.48;;;9.73;;
44270;SDS011;29963;44.594;11.368;2023-02-28T02:02:45;13.80;;;11.00;;
44270;SDS011;29963;44.594;11.368;2023-02-28T02:05:18;17.63;;;10.73;;
44270;SDS011;29963;44.594;11.368;2023-02-28T02:07:46;15.02;;;10.68;;
44270;SDS011;29963;44.594;11.368;2023-02-28T02:10:18;14.20;;;11.02;;
44270;SDS011;29963;44.594;11.368;2023-02-28T02:15:26;19.35;;;12.57;;
44270;SDS011;29963;44.594;11.368;2023-02-28T02:17:56;17.63;;;11.48;;
44270;SDS011;29963;44.594;11.368;2023-02-28T02:32:41;17.77;;;12.02;;
44270;SDS011;29963;44.594;11.368;2023-02-28T02:35:40;16.75;;;13.00;;
44270;SDS011;29963;44.594;11.368;2023-02-28T02:38:25;22.30;;;12.18;;
44270;SDS011;29963;44.594;11.368;2023-02-28T02:41:14;21.10;;;13.77;;
44270;SDS011;29963;44.594;11.368;2023-02-28T02:43:48;20.35;;;12.30;;
44270;SDS011;29963;44.594;11.368;2023-02-28T02:46:43;15.85;;;13.30;;
44270;SDS011;29963;44.594;11.368;2023-02-28T02:49:10;18.35;;;12.60;;
44270;SDS011;29963;44.594;11.368;2023-02-28T02:51:44;21.83;;;12.90;;
44270;SDS011;29963;44.594;11.368;2023-02-28T02:54:14;16.75;;;12.82;;
44270;SDS011;29963;44.594;11.368;2023-02-28T02:56:53;21.65;;;13.90;;
44270;SDS011;29963;44.594;11.368;2023-02-28T02:59:25;20.52;;;14.48;;
44270;SDS011;29963;44.594;11.368;2023-02-28T03:01:57;22.20;;;14.57;;
44270;SDS011;29963;44.594;11.368;2023-02-28T03:04:27;23.60;;;14.93;;
44270;SDS011;29963;44.594;11.368;2023-02-28T03:06:58;29.63;;;15.13;;
44270;SDS011;29963;44.594;11.368;2023-02-28T03:09:24;15.57;;;11.60;;
44270;SDS011;29963;44.594;11.368;2023-02-28T03:11:51;18.75;;;13.10;;
44270;SDS011;29963;44.594;11.368;2023-02-28T03:20:03;17.65;;;13.50;;
44270;SDS011;29963;44.594;11.368;2023-02-28T03:25:17;16.40;;;11.32;;
44270;SDS011;29963;44.594;11.368;2023-02-28T03:28:15;15.35;;;11.57;;
44270;SDS011;29963;44.594;11.368;2023-02-28T03:33:24;16.73;;;12.98;;
44270;SDS011;29963;44.594;11.368;2023-02-28T03:35:55;17.08;;;11.63;;
44270;SDS011;29963;44.594;11.368;2023-02-28T03:38:38;16.27;;;12.57;;
44270;SDS011;29963;44.594;11.368;2023-02-28T03:41:13;13.70;;;12.23;;
44270;SDS011;29963;44.594;11.368;2023-02-28T03:43:50;15.85;;;12.55;;
44270;SDS011;29963;44.594;11.368;2023-02-28T03:46:49;12.75;;;11.13;;
44270;SDS011;29963;44.594;11.368;2023-02-28T03:49:20;14.07;;;12.65;;
44270;SDS011;29963;44.594;11.368;2023-02-28T03:51:50;14.15;;;11.90;;
44270;SDS011;29963;44.594;11.368;2023-02-28T03:54:19;17.90;;;12.98;;
44270;SDS011;29963;44.594;11.368;2023-02-28T03:56:59;13.27;;;11.88;;
44270;SDS011;29963;44.594;11.368;2023-02-28T03:59:34;13.15;;;11.38;;
44270;SDS011;29963;44.594;11.368;2023-02-28T04:02:24;14.02;;;12.48;;
44270;SDS011;29963;44.594;11.368;2023-02-28T04:04:49;14.15;;;12.48;;
44270;SDS011;29963;44.594;11.368;2023-02-28T04:07:15;17.83;;;12.73;;
44270;SDS011;29963;44.594;11.368;2023-02-28T04:09:41;17.27;;;13.30;;
44270;SDS011;29963;44.594;11.368;2023-02-28T04:12:08;22.08;;;12.23;;
44270;SDS011;29963;44.594;11.368;2023-02-28T04:14:33;14.35;;;12.63;;
44270;SDS011;29963;44.594;11.368;2023-02-28T04:16:59;15.45;;;12.90;;
44270;SDS011;29963;44.594;11.368;2023-02-28T04:19:25;15.48;;;11.88;;
44270;SDS011;29963;44.594;11.368;2023-02-28T04:21:51;15.35;;;12.05;;
44270;SDS011;29963;44.594;11.368;2023-02-28T04:24:18;19.30;;;11.50;;
44270;SDS011;29963;44.594;11.368;2023-02-28T04:26:47;17.60;;;11.82;;
44270;SDS011;29963;44.594;11.368;2023-02-28T04:29:22;18.45;;;12.55;;
44270;SDS011;29963;44.594;11.368;2023-02-28T04:31:48;14.00;;;12.00;;
44270;SDS011;29963;44.594;11.368;2023-02-28T04:34:13;16.25;;;12.57;;
44270;SDS011;29963;44.594;11.368;2023-02-28T04:36:39;14.65;;;12.07;;
44270;SDS011;29963;44.594;11.368;2023-02-28T04:39:08;15.98;;;12.13;;
44270;SDS011;29963;44.594;11.368;2023-02-28T04:41:34;21.50;;;12.18;;
44270;SDS011;29963;44.594;11.368;2023-02-28T04:44:00;16.48;;;11.77;;
44270;SDS011;29963;44.594;11.368;2023-02-28T04:46:25;15.30;;;11.63;;
44270;SDS011;29963;44.594;11.368;2023-02-28T04:48:51;14.20;;;11.63;;
44270;SDS011;29963;44.594;11.368;2023-02-28T04:51:17;15.45;;;12.05;;
44270;SDS011;29963;44.594;11.368;2023-02-28T04:53:44;17.40;;;12.02;;
44270;SDS011;29963;44.594;11.368;2023-02-28T04:56:11;15.18;;;12.52;;
44270;SDS011;29963;44.594;11.368;2023-02-28T04:58:38;14.60;;;12.02;;
44270;SDS011;29963;44.594;11.368;2023-02-28T05:01:05;15.95;;;12.05;;
44270;SDS011;29963;44.594;11.368;2023-02-28T05:03:37;15.95;;;11.63;;
44270;SDS011;29963;44.594;11.368;2023-02-28T05:06:05;14.70;;;12.20;;
44270;SDS011;29963;44.594;11.368;2023-02-28T05:08:31;19.45;;;11.60;;
44270;SDS011;29963;44.594;11.368;2023-02-28T05:10:57;14.73;;;11.80;;
44270;SDS011;29963;44.594;11.368;2023-02-28T05:13:22;17.92;;;12.13;;
44270;SDS011;29963;44.594;11.368;2023-02-28T05:15:48;15.13;;;11.80;;
44270;SDS011;29963;44.594;11.368;2023-02-28T05:18:13;16.55;;;12.50;;
44270;SDS011;29963;44.594;11.368;2023-02-28T05:20:39;18.73;;;11.98;;
44270;SDS011;29963;44.594;11.368;2023-02-28T05:23:05;17.13;;;12.50;;
44270;SDS011;29963;44.594;11.368;2023-02-28T05:25:30;16.33;;;11.93;;
44270;SDS011;29963;44.594;11.368;2023-02-28T05:27:56;13.10;;;11.63;;
44270;SDS011;29963;44.594;11.368;2023-02-28T05:30:21;13.75;;;11.20;;
44270;SDS011;29963;44.594;11.368;2023-02-28T05:32:49;15.90;;;12.55;;
44270;SDS011;29963;44.594;11.368;2023-02-28T05:35:16;13.20;;;11.82;;
44270;SDS011;29963;44.594;11.368;2023-02-28T05:37:41;16.70;;;12.95;;
44270;SDS011;29963;44.594;11.368;2023-02-28T05:40:07;14.35;;;11.75;;
44270;SDS011;29963;44.594;11.368;2023-02-28T05:42:36;19.33;;;12.48;;
44270;SDS011;29963;44.594;11.368;2023-02-28T05:45:03;19.92;;;12.18;;
44270;SDS011;29963;44.594;11.368;2023-02-28T05:47:30;16.70;;;12.88;;
44270;SDS011;29963;44.594;11.368;2023-02-28T05:49:55;14.70;;;11.32;;
44270;SDS011;29963;44.594;11.368;2023-02-28T05:52:21;14.50;;;11.93;;
44270;SDS011;29963;44.594;11.368;2023-02-28T05:54:50;17.20;;;13.20;;
44270;SDS011;29963;44.594;11.368;2023-02-28T05:57:15;16.35;;;13.38;;
44270;SDS011;29963;44.594;11.368;2023-02-28T05:59:41;20.92;;;13.35;;
44270;SDS011;29963;44.594;11.368;2023-02-28T06:02:10;19.38;;;12.98;;
44270;SDS011;29963;44.594;11.368;2023-02-28T06:04:37;16.33;;;12.15;;
44270;SDS011;29963;44.594;11.368;2023-02-28T06:07:03;20.88;;;13.65;;
44270;SDS011;29963;44.594;11.368;2023-02-28T06:09:29;13.32;;;12.02;;
44270;SDS011;29963;44.594;11.368;2023-02-28T06:11:54;19.05;;;13.63;;
44270;SDS011;29963;44.594;11.368;2023-02-28T06:14:23;16.90;;;13.18;;
44270;SDS011;29963;44.594;11.368;2023-02-28T06:16:49;24.90;;;13.32;;
44270;SDS011;29963;44.594;11.368;2023-02-28T06:19:14;18.88;;;13.05;;
44270;SDS011;29963;44.594;11.368;2023-02-28T06:21:40;15.68;;;14.07;;
44270;SDS011;29963;44.594;11.368;2023-02-28T06:24:06;17.95;;;13.50;;
44270;SDS011;29963;44.594;11.368;2023-02-28T06:26:32;16.40;;;14.10;;
44270;SDS011;29963;44.594;11.368;2023-02-28T06:28:58;14.23;;;12.50;;
44270;SDS011;29963;44.594;11.368;2023-02-28T06:31:25;14.93;;;13.13;;
44270;SDS011;29963;44.594;11.368;2023-02-28T06:33:51;17.02;;;12.98;;
44270;SDS011;29963;44.594;11.368;2023-02-28T06:36:17;16.83;;;13.25;;
44270;SDS011;29963;44.594;11.368;2023-02-28T06:38:43;14.75;;;12.18;;
44270;SDS011;29963;44.594;11.368;2023-02-28T06:41:08;20.50;;;14.20;;
44270;SDS011;29963;44.594;11.368;2023-02-28T06:43:36;15.90;;;12.50;;
44270;SDS011;29963;44.594;11.368;2023-02-28T06:46:05;20.20;;;13.93;;
44270;SDS011;29963;44.594;11.368;2023-02-28T06:48:32;14.73;;;13.20;;
44270;SDS011;29963;44.594;11.368;2023-02-28T06:51:01;16.15;;;13.50;;
44270;SDS011;29963;44.594;11.368;2023-02-28T06:53:28;15.60;;;12.52;;
44270;SDS011;29963;44.594;11.368;2023-02-28T06:55:54;17.30;;;13.88;;
44270;SDS011;29963;44.594;11.368;2023-02-28T06:58:19;18.40;;;14.10;;
44270;SDS011;29963;44.594;11.368;2023-02-28T07:00:45;14.43;;;12.32;;
44270;SDS011;29963;44.594;11.368;2023-02-28T07:03:11;14.45;;;12.23;;
44270;SDS011;29963;44.594;11.368;2023-02-28T07:05:37;16.80;;;13.02;;
44270;SDS011;29963;44.594;11.368;2023-02-28T07:08:04;18.23;;;13.70;;
44270;SDS011;29963;44.594;11.368;2023-02-28T07:10:31;18.67;;;14.27;;
44270;SDS011;29963;44.594;11.368;2023-02-28T07:13:02;16.13;;;13.57;;
44270;SDS011;29963;44.594;11.368;2023-02-28T07:15:29;18.77;;;14.20;;
44270;SDS011;29963;44.594;11.368;2023-02-28T07:17:54;16.65;;;13.80;;
44270;SDS011;29963;44.594;11.368;2023-02-28T07:20:21;17.83;;;14.27;;
44270;SDS011;29963;44.594;11.368;2023-02-28T07:22:48;19.35;;;13.77;;
44270;SDS011;29963;44.594;11.368;2023-02-28T07:25:20;15.05;;;13.32;;
44270;SDS011;29963;44.594;11.368;2023-02-28T07:27:46;17.08;;;14.57;;
44270;SDS011;29963;44.594;11.368;2023-02-28T07:30:12;16.90;;;13.77;;
44270;SDS011;29963;44.594;11.368;2023-02-28T07:32:38;18.70;;;14.23;;
44270;SDS011;29963;44.594;11.368;2023-02-28T07:35:03;17.80;;;13.10;;
44270;SDS011;29963;44.594;11.368;2023-02-28T07:37:32;18.95;;;14.48;;
44270;SDS011;29963;44.594;11.368;2023-02-28T07:40:01;18.60;;;14.52;;
44270;SDS011;29963;44.594;11.368;2023-02-28T07:42:31;20.63;;;15.60;;
44270;SDS011;29963;44.594;11.368;2023-02-28T07:44:56;17.20;;;14.57;;
44270;SDS011;29963;44.594;11.368;2023-02-28T07:47:23;20.05;;;15.07;;
44270;SDS011;29963;44.594;11.368;2023-02-28T07:49:49;18.35;;;15.45;;
44270;SDS011;29963;44.594;11.368;2023-02-28T07:52:15;17.58;;;14.20;;
44270;SDS011;29963;44.594;11.368;2023-02-28T07:54:40;19.65;;;15.27;;
44270;SDS011;29963;44.594;11.368;2023-02-28T07:57:06;19.10;;;15.52;;
44270;SDS011;29963;44.594;11.368;2023-02-28T07:59:32;22.13;;;15.98;;
44270;SDS011;29963;44.594;11.368;2023-02-28T08:01:57;18.50;;;14.88;;
44270;SDS011;29963;44.594;11.368;2023-02-28T08:04:24;16.77;;;14.32;;
44270;SDS011;29963;44.594;11.368;2023-02-28T08:06:50;18.92;;;14.63;;
44270;SDS011;29963;44.594;11.368;2023-02-28T08:09:17;18.30;;;14.35;;
44270;SDS011;29963;44.594;11.368;2023-02-28T08:11:43;17.13;;;14.95;;
44270;SDS011;29963;44.594;11.368;2023-02-28T08:14:09;19.75;;;15.70;;
44270;SDS011;29963;44.594;11.368;2023-02-28T08:16:35;19.00;;;15.20;;
44270;SDS011;29963;44.594;11.368;2023-02-28T08:19:01;17.17;;;14.23;;
44270;SDS011;29963;44.594;11.368;2023-02-28T08:21:26;17.45;;;14.20;;
44270;SDS011;29963;44.594;11.368;2023-02-28T08:23:52;15.10;;;13.48;;
44270;SDS011;29963;44.594;11.368;2023-02-28T08:26:18;21.83;;;15.90;;
44270;SDS011;29963;44.594;11.368;2023-02-28T08:28:44;16.67;;;13.98;;
44270;SDS011;29963;44.594;11.368;2023-02-28T08:31:10;22.30;;;14.88;;
44270;SDS011;29963;44.594;11.368;2023-02-28T08:33:38;17.17;;;14.77;;
44270;SDS011;29963;44.594;11.368;2023-02-28T08:36:04;25.15;;;16.00;;
44270;SDS011;29963;44.594;11.368;2023-02-28T08:38:31;18.38;;;15.30;;
44270;SDS011;29963;44.594;11.368;2023-02-28T08:40:57;20.08;;;15.48;;
44270;SDS011;29963;44.594;11.368;2023-02-28T08:43:24;20.00;;;14.65;;
44270;SDS011;29963;44.594;11.368;2023-02-28T08:45:53;23.10;;;15.10;;
44270;SDS011;29963;44.594;11.368;2023-02-28T08:48:19;17.08;;;14.00;;
44270;SDS011;29963;44.594;11.368;2023-02-28T08:50:54;22.35;;;14.60;;
44270;SDS011;29963;44.594;11.368;2023-02-28T08:53:30;17.17;;;13.20;;
44270;SDS011;29963;44.594;11.368;2023-02-28T08:55:57;22.00;;;14.90;;
44270;SDS011;29963;44.594;11.368;2023-02-28T08:58:24;17.17;;;13.40;;
44270;SDS011;29963;44.594;11.368;2023-02-28T09:00:50;20.63;;;14.90;;
44270;SDS011;29963;44.594;11.368;2023-02-28T09:03:16;15.10;;;13.32;;
44270;SDS011;29963;44.594;11.368;2023-02-28T09:05:51;17.25;;;12.77;;
44270;SDS011;29963;44.594;11.368;2023-02-28T09:08:24;16.60;;;14.48;;
44270;SDS011;29963;44.594;11.368;2023-02-28T09:10:51;21.15;;;14.35;;
44270;SDS011;29963;44.594;11.368;2023-02-28T09:13:17;27.25;;;15.10;;
44270;SDS011;29963;44.594;11.368;2023-02-28T09:15:43;16.52;;;13.73;;
44270;SDS011;29963;44.594;11.368;2023-02-28T09:18:09;19.27;;;14.18;;
44270;SDS011;29963;44.594;11.368;2023-02-28T09:20:39;19.27;;;14.15;;
44270;SDS011;29963;44.594;11.368;2023-02-28T09:23:06;16.95;;;14.05;;
44270;SDS011;29963;44.594;11.368;2023-02-28T09:25:32;18.52;;;14.52;;
44270;SDS011;29963;44.594;11.368;2023-02-28T09:27:58;18.42;;;13.43;;
44270;SDS011;29963;44.594;11.368;2023-02-28T09:30:24;15.65;;;14.10;;
44270;SDS011;29963;44.594;11.368;2023-02-28T09:32:52;21.90;;;14.90;;
44270;SDS011;29963;44.594;11.368;2023-02-28T09:35:18;18.58;;;14.32;;
44270;SDS011;29963;44.594;11.368;2023-02-28T09:37:51;21.65;;;14.77;;
44270;SDS011;29963;44.594;11.368;2023-02-28T09:40:18;14.93;;;13.35;;
44270;SDS011;29963;44.594;11.368;2023-02-28T09:42:46;16.33;;;13.68;;
44270;SDS011;29963;44.594;11.368;2023-02-28T09:47:47;17.70;;;14.48;;
44270;SDS011;29963;44.594;11.368;2023-02-28T09:56:07;19.95;;;15.52;;
44270;SDS011;29963;44.594;11.368;2023-02-28T10:02:10;17.70;;;11.88;;
44270;SDS011;29963;44.594;11.368;2023-02-28T10:07:25;16.52;;;11.88;;
44270;SDS011;29963;44.594;11.368;2023-02-28T10:10:05;19.35;;;16.00;;
44270;SDS011;29963;44.594;11.368;2023-02-28T10:12:39;18.83;;;15.05;;
44270;SDS011;29963;44.594;11.368;2023-02-28T10:15:12;16.80;;;12.80;;
44270;SDS011;29963;44.594;11.368;2023-02-28T10:17:40;18.10;;;10.85;;
44270;SDS011;29963;44.594;11.368;2023-02-28T10:20:11;20.70;;;14.77;;
44270;SDS011;29963;44.594;11.368;2023-02-28T10:25:32;17.55;;;12.52;;
44270;SDS011;29963;44.594;11.368;2023-02-28T10:28:01;30.63;;;19.65;;
44270;SDS011;29963;44.594;11.368;2023-02-28T10:30:36;21.98;;;14.70;;
44270;SDS011;29963;44.594;11.368;2023-02-28T10:33:28;15.32;;;12.40;;
44270;SDS011;29963;44.594;11.368;2023-02-28T10:35:59;16.60;;;12.43;;
44270;SDS011;29963;44.594;11.368;2023-02-28T10:38:31;22.20;;;11.18;;
44270;SDS011;29963;44.594;11.368;2023-02-28T10:43:32;17.40;;;11.25;;
44270;SDS011;29963;44.594;11.368;2023-02-28T10:51:46;15.90;;;11.75;;
44270;SDS011;29963;44.594;11.368;2023-02-28T10:54:31;15.35;;;11.85;;
44270;SDS011;29963;44.594;11.368;2023-02-28T10:59:46;14.23;;;11.40;;
44270;SDS011;29963;44.594;11.368;2023-02-28T11:02:35;15.48;;;11.10;;
44270;SDS011;29963;44.594;11.368;2023-02-28T11:07:54;20.83;;;13.13;;
44270;SDS011;29963;44.594;11.368;2023-02-28T11:10:23;16.98;;;11.73;;
44270;SDS011;29963;44.594;11.368;2023-02-28T11:12:54;17.20;;;13.15;;
44270;SDS011;29963;44.594;11.368;2023-02-28T11:18:18;18.33;;;11.93;;
44270;SDS011;29963;44.594;11.368;2023-02-28T11:21:00;12.65;;;11.32;;
44270;SDS011;29963;44.594;11.368;2023-02-28T11:23:28;17.27;;;12.18;;
44270;SDS011;29963;44.594;11.368;2023-02-28T11:25:58;16.65;;;10.75;;
44270;SDS011;29963;44.594;11.368;2023-02-28T11:31:00;16.17;;;13.55;;
44270;SDS011;29963;44.594;11.368;2023-02-28T11:38:46;13.05;;;11.68;;
44270;SDS011;29963;44.594;11.368;2023-02-28T11:41:24;13.25;;;11.70;;
44270;SDS011;29963;44.594;11.368;2023-02-28T11:44:05;15.43;;;10.68;;
44270;SDS011;29963;44.594;11.368;2023-02-28T11:46:57;12.40;;;11.07;;
44270;SDS011;29963;44.594;11.368;2023-02-28T11:49:41;12.25;;;11.05;;
44270;SDS011;29963;44.594;11.368;2023-02-28T11:52:33;13.75;;;11.48;;
44270;SDS011;29963;44.594;11.368;2023-02-28T11:55:20;14.82;;;12.68;;
44270;SDS011;29963;44.594;11.368;2023-02-28T12:23:34;21.15;;;14.60;;
44270;SDS011;29963;44.594;11.368;2023-02-28T12:28:41;17.98;;;13.85;;
44270;SDS011;29963;44.594;11.368;2023-02-28T12:33:52;14.93;;;13.02;;
44270;SDS011;29963;44.594;11.368;2023-02-28T12:36:21;19.08;;;13.82;;
44270;SDS011;29963;44.594;11.368;2023-02-28T12:38:53;16.17;;;13.05;;
44270;SDS011;29963;44.594;11.368;2023-02-28T12:44:13;23.02;;;14.80;;
44270;SDS011;29963;44.594;11.368;2023-02-28T12:46:44;19.13;;;14.68;;
44270;SDS011;29963;44.594;11.368;2023-02-28T12:49:25;24.08;;;15.20;;
44270;SDS011;29963;44.594;11.368;2023-02-28T12:52:11;22.88;;;13.88;;
44270;SDS011;29963;44.594;11.368;2023-02-28T12:57:25;20.77;;;16.65;;
44270;SDS011;29963;44.594;11.368;2023-02-28T13:00:12;18.42;;;14.10;;
44270;SDS011;29963;44.594;11.368;2023-02-28T13:10:46;18.27;;;13.25;;
44270;SDS011;29963;44.594;11.368;2023-02-28T13:13:17;15.15;;;13.40;;
44270;SDS011;29963;44.594;11.368;2023-02-28T13:15:56;21.63;;;14.82;;
44270;SDS011;29963;44.594;11.368;2023-02-28T13:18:39;21.77;;;15.60;;
44270;SDS011;29963;44.594;11.368;2023-02-28T13:21:24;17.92;;;15.75;;
44270;SDS011;29963;44.594;11.368;2023-02-28T13:26:22;21.05;;;14.80;;
44270;SDS011;29963;44.594;11.368;2023-02-28T13:34:31;17.00;;;14.38;;
44270;SDS011;29963;44.594;11.368;2023-02-28T13:47:39;20.95;;;16.42;;
44270;SDS011;29963;44.594;11.368;2023-02-28T13:50:34;24.10;;;15.55;;
44270;SDS011;29963;44.594;11.368;2023-02-28T14:07:25;18.35;;;15.82;;
44270;SDS011;29963;44.594;11.368;2023-02-28T14:10:02;20.88;;;16.52;;
44270;SDS011;29963;44.594;11.368;2023-02-28T14:18:16;19.50;;;15.45;;
44270;SDS011;29963;44.594;11.368;2023-02-28T14:20:49;19.23;;;16.33;;
44270;SDS011;29963;44.594;11.368;2023-02-28T14:23:26;20.30;;;16.55;;
44270;SDS011;29963;44.594;11.368;2023-02-28T14:31:57;19.20;;;16.17;;
44270;SDS011;29963;44.594;11.368;2023-02-28T14:37:27;26.42;;;18.73;;
44270;SDS011;29963;44.594;11.368;2023-02-28T14:39:56;22.27;;;17.80;;
44270;SDS011;29963;44.594;11.368;2023-02-28T14:42:27;21.45;;;17.25;;
44270;SDS011;29963;44.594;11.368;2023-02-28T14:44:55;24.42;;;18.55;;
44270;SDS011;29963;44.594;11.368;2023-02-28T14:47:25;22.73;;;18.70;;
44270;SDS011;29963;44.594;11.368;2023-02-28T14:49:53;26.27;;;20.25;;
44270;SDS011;29963;44.594;11.368;2023-02-28T14:52:24;20.48;;;17.40;;
44270;SDS011;29963;44.594;11.368;2023-02-28T14:55:05;24.67;;;19.38;;
44270;SDS011;29963;44.594;11.368;2023-02-28T14:57:40;28.55;;;18.48;;
44270;SDS011;29963;44.594;11.368;2023-02-28T15:02:46;27.20;;;19.83;;
44270;SDS011;29963;44.594;11.368;2023-02-28T15:07:37;26.70;;;20.05;;
44270;SDS011;29963;44.594;11.368;2023-02-28T15:10:06;24.65;;;19.05;;
44270;SDS011;29963;44.594;11.368;2023-02-28T15:12:32;27.45;;;20.83;;
44270;SDS011;29963;44.594;11.368;2023-02-28T15:14:57;25.92;;;21.42;;
44270;SDS011;29963;44.594;11.368;2023-02-28T15:17:23;24.90;;;19.70;;
44270;SDS011;29963;44.594;11.368;2023-02-28T15:19:51;26.85;;;21.23;;
44270;SDS011;29963;44.594;11.368;2023-02-28T15:22:19;24.65;;;20.40;;
44270;SDS011;29963;44.594;11.368;2023-02-28T15:24:55;26.05;;;20.42;;
44270;SDS011;29963;44.594;11.368;2023-02-28T15:27:22;28.10;;;22.15;;
44270;SDS011;29963;44.594;11.368;2023-02-28T15:29:55;26.92;;;20.38;;
44270;SDS011;29963;44.594;11.368;2023-02-28T15:32:30;27.40;;;22.08;;
44270;SDS011;29963;44.594;11.368;2023-02-28T15:40:16;27.92;;;21.58;;
44270;SDS011;29963;44.594;11.368;2023-02-28T15:45:51;26.77;;;21.00;;
44270;SDS011;29963;44.594;11.368;2023-02-28T15:48:22;29.00;;;20.85;;
44270;SDS011;29963;44.594;11.368;2023-02-28T15:53:30;27.98;;;21.70;;
44270;SDS011;29963;44.594;11.368;2023-02-28T15:56:01;28.10;;;21.58;;
44270;SDS011;29963;44.594;11.368;2023-02-28T15:58:37;28.73;;;22.05;;
44270;SDS011;29963;44.594;11.368;2023-02-28T16:01:05;30.58;;;21.63;;
44270;SDS011;29963;44.594;11.368;2023-02-28T16:04:05;24.40;;;20.42;;
44270;SDS011;29963;44.594;11.368;2023-02-28T16:06:32;32.28;;;23.33;;
44270;SDS011;29963;44.594;11.368;2023-02-28T16:08:58;31.23;;;23.67;;
44270;SDS011;29963;44.594;11.368;2023-02-28T16:11:24;31.83;;;23.33;;
44270;SDS011;29963;44.594;11.368;2023-02-28T16:13:50;28.92;;;22.63;;
44270;SDS011;29963;44.594;11.368;2023-02-28T16:16:18;33.72;;;25.13;;
44270;SDS011;29963;44.594;11.368;2023-02-28T16:18:49;33.45;;;25.27;;
44270;SDS011;29963;44.594;11.368;2023-02-28T16:21:15;31.98;;;24.52;;
44270;SDS011;29963;44.594;11.368;2023-02-28T16:23:41;30.70;;;23.92;;
44270;SDS011;29963;44.594;11.368;2023-02-28T16:26:14;30.33;;;23.73;;
44270;SDS011;29963;44.594;11.368;2023-02-28T16:28:49;33.58;;;24.10;;
44270;SDS011;29963;44.594;11.368;2023-02-28T16:31:15;30.10;;;26.50;;
44270;SDS011;29963;44.594;11.368;2023-02-28T16:33:42;36.92;;;25.50;;
44270;SDS011;29963;44.594;11.368;2023-02-28T16:36:13;30.65;;;23.92;;
44270;SDS011;29963;44.594;11.368;2023-02-28T16:38:39;37.47;;;26.05;;
44270;SDS011;29963;44.594;11.368;2023-02-28T16:41:05;30.70;;;24.63;;
44270;SDS011;29963;44.594;11.368;2023-02-28T16:43:31;35.60;;;26.30;;
44270;SDS011;29963;44.594;11.368;2023-02-28T16:45:57;33.47;;;24.80;;
44270;SDS011;29963;44.594;11.368;2023-02-28T16:48:24;33.72;;;25.73;;
44270;SDS011;29963;44.594;11.368;2023-02-28T16:50:50;33.17;;;25.17;;
44270;SDS011;29963;44.594;11.368;2023-02-28T16:53:16;32.38;;;26.23;;
44270;SDS011;29963;44.594;11.368;2023-02-28T16:55:42;30.83;;;24.88;;
44270;SDS011;29963;44.594;11.368;2023-02-28T16:58:10;31.80;;;25.65;;
44270;SDS011;29963;44.594;11.368;2023-02-28T17:00:42;28.23;;;23.85;;
44270;SDS011;29963;44.594;11.368;2023-02-28T17:03:19;32.70;;;24.27;;
44270;SDS011;29963;44.594;11.368;2023-02-28T17:05:48;28.80;;;24.25;;
44270;SDS011;29963;44.594;11.368;2023-02-28T17:08:16;34.35;;;26.10;;
44270;SDS011;29963;44.594;11.368;2023-02-28T17:10:42;31.25;;;26.25;;
44270;SDS011;29963;44.594;11.368;2023-02-28T17:13:08;30.42;;;26.67;;
44270;SDS011;29963;44.594;11.368;2023-02-28T17:15:34;30.45;;;25.70;;
44270;SDS011;29963;44.594;11.368;2023-02-28T17:18:00;31.20;;;26.65;;
44270;SDS011;29963;44.594;11.368;2023-02-28T17:20:26;35.45;;;27.63;;